createdAt,value
2023-05-15T00:01:38.306Z,52.49
2023-05-15T00:04:07.285Z,52.60
2023-05-15T00:06:38.602Z,52.75
2023-05-15T00:09:09.195Z,52.94
2023-05-15T00:11:42.334Z,52.93
2023-05-15T00:14:11.670Z,52.82
2023-05-15T00:16:44.095Z,52.75
2023-05-15T00:19:13.581Z,52.56
2023-05-15T00:21:43.033Z,52.52
2023-05-15T00:24:12.350Z,52.79
2023-05-15T00:26:41.698Z,53.05
2023-05-15T00:29:11.742Z,53.34
2023-05-15T00:31:46.464Z,53.43
2023-05-15T00:34:15.454Z,53.69
2023-05-15T00:36:46.859Z,53.87
2023-05-15T00:39:16.820Z,54.07
2023-05-15T00:41:47.268Z,54.24
2023-05-15T00:44:19.044Z,54.30
2023-05-15T00:46:47.974Z,54.46
2023-05-15T00:49:17.108Z,54.55
2023-05-15T00:51:46.251Z,54.60
2023-05-15T00:54:16.364Z,54.77
2023-05-15T00:56:45.990Z,54.92
2023-05-15T00:59:15.394Z,55.06
2023-05-15T01:01:44.987Z,55.20
2023-05-15T01:04:13.851Z,55.35
2023-05-15T01:06:43.435Z,55.60
2023-05-15T01:09:12.518Z,55.78
2023-05-15T01:11:42.278Z,55.94
2023-05-15T01:14:13.402Z,56.01
2023-05-15T01:16:42.861Z,55.93
2023-05-15T01:19:12.035Z,55.97
2023-05-15T01:21:55.847Z,56.21
2023-05-15T01:25:05.921Z,56.30
2023-05-15T01:27:42.008Z,56.48
2023-05-15T01:30:25.135Z,56.78
2023-05-15T01:33:17.151Z,56.97
2023-05-15T01:35:51.456Z,57.06
2023-05-15T01:38:39.013Z,57.25
2023-05-15T01:41:31.643Z,57.57
2023-05-15T01:44:10.689Z,57.90
2023-05-15T01:46:42.796Z,57.93
2023-05-15T01:49:13.715Z,57.83
2023-05-15T01:51:44.955Z,57.84
2023-05-15T01:54:14.682Z,57.89
2023-05-15T01:56:45.028Z,58.04
2023-05-15T01:59:14.659Z,58.29
2023-05-15T02:01:43.852Z,58.47
2023-05-15T02:04:13.438Z,58.67
2023-05-15T02:06:42.421Z,58.63
2023-05-15T02:09:12.351Z,58.66
2023-05-15T02:11:43.069Z,58.76
2023-05-15T02:14:12.240Z,58.76
2023-05-15T02:16:41.518Z,58.91
2023-05-15T02:19:10.973Z,59.03
2023-05-15T02:21:40.117Z,59.17
2023-05-15T02:24:09.346Z,59.23
2023-05-15T02:27:13.366Z,59.38
2023-05-15T02:30:11.801Z,59.55
2023-05-15T02:32:51.884Z,59.53
2023-05-15T02:35:32.852Z,59.62
2023-05-15T02:38:05.751Z,59.86
2023-05-15T02:40:36.620Z,59.89
2023-05-15T02:43:07.940Z,59.65
2023-05-15T02:45:38.119Z,59.79
2023-05-15T02:48:09.394Z,59.66
2023-05-15T02:50:38.894Z,59.57
2023-05-15T02:53:09.677Z,59.73
2023-05-15T02:55:38.771Z,59.93
2023-05-15T02:58:07.712Z,60.17
2023-05-15T03:00:37.000Z,60.31
2023-05-15T03:03:07.433Z,60.42
2023-05-15T03:05:37.011Z,60.49
2023-05-15T03:08:08.447Z,60.58
2023-05-15T03:10:37.655Z,60.74
2023-05-15T03:13:06.826Z,60.85
2023-05-15T03:15:35.936Z,60.99
2023-05-15T03:18:05.484Z,61.26
2023-05-15T03:20:34.435Z,61.48
2023-05-15T03:23:03.590Z,61.65
2023-05-15T03:25:32.844Z,61.78
2023-05-15T03:28:01.918Z,61.74
2023-05-15T03:30:31.140Z,61.65
2023-05-15T03:33:02.653Z,61.55
2023-05-15T03:35:32.351Z,61.48
2023-05-15T03:38:01.752Z,61.33
2023-05-15T03:40:30.977Z,61.31
2023-05-15T03:43:00.626Z,61.22
2023-05-15T03:45:30.090Z,61.38
2023-05-15T03:47:58.988Z,61.39
2023-05-15T03:50:29.596Z,61.45
2023-05-15T03:53:00.348Z,61.46
2023-05-15T03:55:30.528Z,61.53
2023-05-15T03:57:59.704Z,61.49
2023-05-15T04:00:31.634Z,61.40
2023-05-15T04:03:01.540Z,61.41
2023-05-15T04:05:31.445Z,61.38
2023-05-15T04:08:01.408Z,61.25
2023-05-15T04:10:32.688Z,61.09
2023-05-15T04:13:01.986Z,60.98
2023-05-15T04:15:31.061Z,60.83
2023-05-15T04:18:00.041Z,60.76
2023-05-15T04:20:29.489Z,60.66
2023-05-15T04:23:00.148Z,60.49
2023-05-15T04:25:29.664Z,60.68
2023-05-15T04:27:59.043Z,60.53
2023-05-15T04:30:28.006Z,60.12
2023-05-15T04:32:58.375Z,59.66
2023-05-15T04:35:27.879Z,59.80
2023-05-15T04:37:57.231Z,59.62
2023-05-15T04:40:26.460Z,59.35
2023-05-15T04:42:56.908Z,58.68
2023-05-15T04:45:26.858Z,58.45
2023-05-15T04:47:55.891Z,57.59
2023-05-15T04:50:25.371Z,56.93
2023-05-15T04:52:54.793Z,56.32
2023-05-15T04:55:24.227Z,55.71
2023-05-15T04:57:55.427Z,55.04
2023-05-15T05:00:24.749Z,54.67
2023-05-15T05:02:55.363Z,54.32
2023-05-15T05:05:24.314Z,53.76
2023-05-15T05:07:53.635Z,52.81
2023-05-15T05:10:23.149Z,52.15
2023-05-15T05:12:54.136Z,51.50
2023-05-15T05:15:24.775Z,50.75
2023-05-15T05:17:54.287Z,49.92
2023-05-15T05:20:23.600Z,49.05
2023-05-15T05:22:53.543Z,47.84
2023-05-15T05:25:24.092Z,46.66
2023-05-15T05:27:52.985Z,45.98
2023-05-15T05:30:23.595Z,44.81
2023-05-15T05:32:52.997Z,43.59
2023-05-15T05:35:22.340Z,42.76
2023-05-15T05:37:51.586Z,41.72
2023-05-15T05:42:50.310Z,39.29
2023-05-15T05:45:19.921Z,38.22
2023-05-15T05:47:49.515Z,37.39
2023-05-15T05:50:18.744Z,36.65
2023-05-15T05:52:47.878Z,35.06
2023-05-15T05:55:16.874Z,33.13
2023-05-15T05:57:46.064Z,31.84
2023-05-15T06:00:15.849Z,30.72
2023-05-15T06:02:45.263Z,29.95
2023-05-15T06:05:14.609Z,29.02
2023-05-15T06:07:44.193Z,27.87
2023-05-15T06:10:13.704Z,26.82
2023-05-15T06:12:43.642Z,27.06
2023-05-15T06:15:14.624Z,26.38
2023-05-15T06:17:44.556Z,25.38
2023-05-15T06:20:15.501Z,25.31
2023-05-15T06:22:45.079Z,25.31
2023-05-15T06:25:14.745Z,25.30
2023-05-15T06:27:44.413Z,25.18
2023-05-15T06:30:14.505Z,25.23
2023-05-15T06:32:44.555Z,25.16
2023-05-15T06:35:14.689Z,25.17
2023-05-15T06:37:44.166Z,24.95
2023-05-15T06:40:13.743Z,25.16
2023-05-15T06:42:43.025Z,24.44
2023-05-15T06:45:12.815Z,23.63
2023-05-15T06:47:41.865Z,23.80
2023-05-15T06:50:11.318Z,23.35
2023-05-15T06:52:40.912Z,22.97
2023-05-15T06:55:10.620Z,22.95
2023-05-15T06:57:39.983Z,22.61
2023-05-15T07:00:10.595Z,22.64
2023-05-15T07:02:40.478Z,22.67
2023-05-15T07:05:11.283Z,22.94
2023-05-15T07:07:40.938Z,22.79
2023-05-15T07:10:10.236Z,22.96
2023-05-15T07:12:40.302Z,22.74
2023-05-15T07:15:10.099Z,22.83
2023-05-15T07:17:40.339Z,22.65
2023-05-15T07:20:10.620Z,22.33
2023-05-15T07:22:51.883Z,21.92
2023-05-15T07:25:11.214Z,21.19
2023-05-15T07:27:40.926Z,20.87
2023-05-15T07:30:11.666Z,20.89
2023-05-15T07:32:42.090Z,20.88
2023-05-15T07:35:12.195Z,20.63
2023-05-15T07:37:42.162Z,20.58
2023-05-15T07:40:12.334Z,20.65
2023-05-15T07:42:44.812Z,19.67
2023-05-15T07:45:14.843Z,20.40
2023-05-15T07:47:47.430Z,19.98
2023-05-15T07:50:17.262Z,20.17
2023-05-15T07:52:46.301Z,19.64
2023-05-15T07:55:14.869Z,19.57
2023-05-15T07:57:45.420Z,19.76
2023-05-15T08:00:17.196Z,19.52
2023-05-15T08:02:47.142Z,19.47
2023-05-15T08:05:17.025Z,19.28
2023-05-15T08:07:46.498Z,19.25
2023-05-15T08:10:15.518Z,19.23
2023-05-15T08:12:47.250Z,19.16
2023-05-15T08:15:16.553Z,19.25
2023-05-15T08:17:45.776Z,18.80
2023-05-15T08:20:17.403Z,18.48
2023-05-15T08:22:47.060Z,18.02
2023-05-15T08:25:16.945Z,18.09
2023-05-15T08:27:46.693Z,18.33
2023-05-15T08:30:19.821Z,18.49
2023-05-15T08:32:49.422Z,18.77
2023-05-15T08:35:18.667Z,18.46
2023-05-15T08:37:48.682Z,18.76
2023-05-15T08:40:23.422Z,19.13
2023-05-15T08:42:53.338Z,18.56
2023-05-15T08:45:23.799Z,18.42
2023-05-15T08:47:53.378Z,18.15
2023-05-15T08:50:22.635Z,17.65
2023-05-15T08:52:52.230Z,17.60
2023-05-15T08:55:23.504Z,17.58
2023-05-15T08:57:53.521Z,16.80
2023-05-15T09:00:22.777Z,16.87
2023-05-15T09:02:54.458Z,16.67
2023-05-15T09:05:24.950Z,16.77
2023-05-15T09:07:54.422Z,16.23
2023-05-15T09:10:23.986Z,16.25
2023-05-15T09:12:54.262Z,16.49
2023-05-15T09:15:24.989Z,17.30
2023-05-15T09:17:54.868Z,17.58
2023-05-15T09:20:31.850Z,17.45
2023-05-15T09:23:03.881Z,17.65
2023-05-15T09:25:42.005Z,18.20
2023-05-15T09:28:28.428Z,18.30
2023-05-15T09:31:03.190Z,18.35
2023-05-15T09:33:37.540Z,18.49
2023-05-15T09:36:08.471Z,18.90
2023-05-15T09:38:43.208Z,19.02
2023-05-15T09:41:12.051Z,18.99
2023-05-15T09:43:41.954Z,19.25
2023-05-15T09:46:13.093Z,18.97
2023-05-15T09:48:42.614Z,18.68
2023-05-15T09:51:19.454Z,19.04
2023-05-15T09:53:52.932Z,19.03
2023-05-15T09:56:22.261Z,17.90
2023-05-15T09:59:01.204Z,17.90
2023-05-15T10:01:31.780Z,18.61
2023-05-15T10:04:02.190Z,19.10
2023-05-15T10:06:37.949Z,18.79
2023-05-15T10:09:08.747Z,18.28
2023-05-15T10:11:40.507Z,18.64
2023-05-15T10:14:12.397Z,18.48
2023-05-15T10:16:42.148Z,18.62
2023-05-15T10:19:12.522Z,18.84
2023-05-15T10:21:42.654Z,18.93
2023-05-15T10:24:13.083Z,18.71
2023-05-15T10:26:42.855Z,18.16
2023-05-15T10:29:13.366Z,18.32
2023-05-15T10:31:43.204Z,18.56
2023-05-15T10:34:13.440Z,18.55
2023-05-15T10:36:43.755Z,18.66
2023-05-15T10:39:13.730Z,18.90
2023-05-15T10:41:44.302Z,19.25
2023-05-15T10:44:12.907Z,19.38
2023-05-15T10:46:43.544Z,19.49
2023-05-15T10:49:13.267Z,19.82
2023-05-15T10:51:43.009Z,19.96
2023-05-15T10:54:12.788Z,19.80
2023-05-15T10:56:42.061Z,19.99
2023-05-15T10:59:12.156Z,20.06
2023-05-15T11:01:41.674Z,20.18
2023-05-15T11:04:15.567Z,20.26
2023-05-15T11:06:46.549Z,20.12
2023-05-15T11:09:37.521Z,19.66
2023-05-15T11:12:11.552Z,19.75
2023-05-15T11:14:56.556Z,19.81
2023-05-15T11:17:26.591Z,19.93
2023-05-15T11:19:58.047Z,20.03
2023-05-15T11:22:33.212Z,19.99
2023-05-15T11:25:05.982Z,19.66
2023-05-15T11:27:47.305Z,19.64
2023-05-15T11:30:26.519Z,19.83
2023-05-15T11:33:10.969Z,19.81
2023-05-15T11:35:48.275Z,20.00
2023-05-15T11:38:25.730Z,19.88
2023-05-15T11:41:01.772Z,19.94
2023-05-15T11:43:44.144Z,20.28
2023-05-15T11:46:23.570Z,20.27
2023-05-15T11:48:53.491Z,20.26
2023-05-15T11:51:26.439Z,20.31
2023-05-15T11:53:56.450Z,20.18
2023-05-15T11:56:29.247Z,20.22
2023-05-15T11:58:59.365Z,20.18
2023-05-15T12:01:29.770Z,20.09
2023-05-15T12:03:59.252Z,20.11
2023-05-15T12:06:28.590Z,20.40
2023-05-15T12:08:57.789Z,20.48
2023-05-15T12:11:27.136Z,20.49
2023-05-15T12:13:56.239Z,20.28
2023-05-15T12:16:28.488Z,20.03
2023-05-15T12:18:57.927Z,20.06
2023-05-15T12:21:30.153Z,20.17
2023-05-15T12:24:07.684Z,20.00
2023-05-15T12:26:32.016Z,20.02
2023-05-15T12:29:00.901Z,20.08
2023-05-15T12:31:31.168Z,20.40
2023-05-15T12:34:00.688Z,20.60
2023-05-15T12:36:31.016Z,20.43
2023-05-15T12:39:02.054Z,20.67
2023-05-15T12:41:32.138Z,20.53
2023-05-15T12:44:02.141Z,20.71
2023-05-15T12:46:31.884Z,20.78
2023-05-15T12:49:02.210Z,20.89
2023-05-15T12:51:32.139Z,20.90
2023-05-15T12:54:02.014Z,20.94
2023-05-15T12:56:31.180Z,20.77
2023-05-15T12:59:01.179Z,20.88
2023-05-15T13:01:30.509Z,20.82
2023-05-15T13:04:01.423Z,20.62
2023-05-15T13:06:44.870Z,20.37
2023-05-15T13:09:02.019Z,20.56
2023-05-15T13:11:34.696Z,20.77
2023-05-15T13:14:09.506Z,20.87
2023-05-15T13:16:38.561Z,21.01
2023-05-15T13:19:10.017Z,20.82
2023-05-15T13:21:39.798Z,20.64
2023-05-15T13:24:11.130Z,20.98
2023-05-15T13:26:41.727Z,21.02
2023-05-15T13:29:11.468Z,21.22
2023-05-15T13:31:40.892Z,21.44
2023-05-15T13:34:10.304Z,21.23
2023-05-15T13:36:39.459Z,21.41
2023-05-15T13:39:09.138Z,21.35
2023-05-15T13:41:40.033Z,21.53
2023-05-15T13:44:09.856Z,21.06
2023-05-15T13:46:39.157Z,21.11
2023-05-15T13:49:10.443Z,21.09
2023-05-15T13:51:40.930Z,21.23
2023-05-15T13:54:11.061Z,21.44
2023-05-15T13:56:40.610Z,21.28
2023-05-15T13:59:10.011Z,21.45
2023-05-15T14:01:39.927Z,21.61
2023-05-15T14:04:09.992Z,21.74
2023-05-15T14:06:41.087Z,21.68
2023-05-15T14:09:11.097Z,22.02
2023-05-15T14:11:41.202Z,22.02
2023-05-15T14:14:11.269Z,22.08
2023-05-15T14:16:41.433Z,22.30
2023-05-15T14:19:10.942Z,22.14
2023-05-15T14:21:40.517Z,22.59
2023-05-15T14:24:10.065Z,22.90
2023-05-15T14:26:39.471Z,22.55
2023-05-15T14:29:10.332Z,22.49
2023-05-15T14:31:40.806Z,22.44
2023-05-15T14:34:09.758Z,22.56
2023-05-15T14:36:39.340Z,22.42
2023-05-15T14:39:08.681Z,22.50
2023-05-15T14:41:38.181Z,22.60
2023-05-15T14:44:07.860Z,22.71
2023-05-15T14:46:38.386Z,22.61
2023-05-15T14:49:07.813Z,22.45
2023-05-15T14:51:37.613Z,22.52
2023-05-15T14:54:07.420Z,22.59
2023-05-15T14:56:38.049Z,22.42
2023-05-15T14:59:07.470Z,22.29
2023-05-15T15:01:38.104Z,22.49
2023-05-15T15:04:07.715Z,22.51
2023-05-15T15:06:37.553Z,22.57
2023-05-15T15:09:08.652Z,22.64
2023-05-15T15:11:38.573Z,22.52
2023-05-15T15:14:08.203Z,22.61
2023-05-15T15:16:38.048Z,22.62
2023-05-15T15:19:08.280Z,22.62
2023-05-15T15:21:37.983Z,22.62
2023-05-15T15:24:07.632Z,22.51
2023-05-15T15:26:37.778Z,22.62
2023-05-15T15:29:09.517Z,22.67
2023-05-15T15:31:40.088Z,22.70
2023-05-15T15:34:09.942Z,22.82
2023-05-15T15:36:40.919Z,22.72
2023-05-15T15:39:11.683Z,22.92
2023-05-15T15:41:46.957Z,22.89
2023-05-15T15:44:20.198Z,22.91
2023-05-15T15:46:49.638Z,22.98
2023-05-15T15:49:18.974Z,23.22
2023-05-15T15:51:48.803Z,23.31
2023-05-15T15:54:20.651Z,23.45
2023-05-15T15:56:50.081Z,23.64
2023-05-15T15:59:19.051Z,23.80
2023-05-15T16:01:49.168Z,23.90
2023-05-15T16:04:19.488Z,23.88
2023-05-15T16:06:48.734Z,23.69
2023-05-15T16:09:19.722Z,23.87
2023-05-15T16:11:48.857Z,24.03
2023-05-15T16:14:23.789Z,24.28
2023-05-15T16:16:53.199Z,24.58
2023-05-15T16:19:23.728Z,24.57
2023-05-15T16:21:53.454Z,24.67
2023-05-15T16:24:23.903Z,24.85
2023-05-15T16:26:55.002Z,24.92
2023-05-15T16:29:24.503Z,25.06
2023-05-15T16:31:56.270Z,25.27
2023-05-15T16:34:25.903Z,25.38
2023-05-15T16:36:55.143Z,25.48
2023-05-15T16:39:26.530Z,25.54
2023-05-15T16:41:55.835Z,25.73
2023-05-15T16:44:24.500Z,25.81
2023-05-15T16:46:53.620Z,25.96
2023-05-15T16:49:23.030Z,26.11
2023-05-15T16:51:52.687Z,26.05
2023-05-15T16:54:21.367Z,26.09
2023-05-15T16:56:52.011Z,26.16
2023-05-15T16:59:21.324Z,26.37
2023-05-15T17:01:50.798Z,26.54
2023-05-15T17:04:20.215Z,26.64
2023-05-15T17:06:51.528Z,26.73
2023-05-15T17:09:21.579Z,26.94
2023-05-15T17:11:50.597Z,27.24
2023-05-15T17:14:19.752Z,27.45
2023-05-15T17:16:49.043Z,27.73
2023-05-15T17:19:19.667Z,28.06
2023-05-15T17:21:48.982Z,28.26
2023-05-15T17:24:18.798Z,28.69
2023-05-15T17:26:48.088Z,29.05
2023-05-15T17:29:18.283Z,29.29
2023-05-15T17:31:47.559Z,29.26
2023-05-15T17:34:17.010Z,28.80
2023-05-15T17:36:46.311Z,28.85
2023-05-15T17:39:15.652Z,29.01
2023-05-15T17:41:46.679Z,28.76
2023-05-15T17:44:16.501Z,28.70
2023-05-15T17:46:45.675Z,28.75
2023-05-15T17:49:15.201Z,29.05
2023-05-15T17:51:44.609Z,29.44
2023-05-15T17:54:13.691Z,29.64
2023-05-15T17:56:45.084Z,29.84
2023-05-15T17:59:16.155Z,30.12
2023-05-15T18:01:45.236Z,30.51
2023-05-15T18:04:16.285Z,30.59
2023-05-15T18:06:47.288Z,30.91
2023-05-15T18:09:16.706Z,31.19
2023-05-15T18:11:46.495Z,31.44
2023-05-15T18:14:17.916Z,31.75
2023-05-15T18:16:46.989Z,31.89
2023-05-15T18:19:16.287Z,32.02
2023-05-15T18:21:45.318Z,32.21
2023-05-15T18:24:15.682Z,32.44
2023-05-15T18:26:46.695Z,32.67
2023-05-15T18:29:16.333Z,32.83
2023-05-15T18:31:46.108Z,33.10
2023-05-15T18:34:16.241Z,33.32
2023-05-15T18:36:49.644Z,33.49
2023-05-15T18:39:19.091Z,33.79
2023-05-15T18:41:48.469Z,34.14
2023-05-15T18:44:17.808Z,34.34
2023-05-15T18:46:48.227Z,34.49
2023-05-15T18:49:17.815Z,34.72
2023-05-15T18:51:47.013Z,34.83
2023-05-15T18:54:16.211Z,35.01
2023-05-15T18:56:46.113Z,35.17
2023-05-15T18:59:15.972Z,35.46
2023-05-15T19:01:46.321Z,35.71
2023-05-15T19:04:16.063Z,35.83
2023-05-15T19:06:46.871Z,36.02
2023-05-15T19:09:18.880Z,36.29
2023-05-15T19:11:51.848Z,36.51
2023-05-15T19:14:21.509Z,36.77
2023-05-15T19:16:51.140Z,37.01
2023-05-15T19:19:21.103Z,37.12
2023-05-15T19:21:51.884Z,37.28
2023-05-15T19:24:23.246Z,37.59
2023-05-15T19:26:52.737Z,37.64
2023-05-15T19:29:21.956Z,37.61
2023-05-15T19:31:51.109Z,37.84
2023-05-15T19:34:21.035Z,37.94
2023-05-15T19:36:50.574Z,37.90
2023-05-15T19:39:19.935Z,37.90
2023-05-15T19:41:50.302Z,37.91
2023-05-15T19:44:19.976Z,37.91
2023-05-15T19:46:49.369Z,37.97
2023-05-15T19:49:18.679Z,38.06
2023-05-15T19:51:48.475Z,38.08
2023-05-15T19:54:18.829Z,38.28
2023-05-15T19:56:49.333Z,38.39
2023-05-15T19:59:19.282Z,38.63
2023-05-15T20:01:48.489Z,38.68
2023-05-15T20:04:17.823Z,38.54
2023-05-15T20:06:47.682Z,38.40
2023-05-15T20:09:17.427Z,38.26
2023-05-15T20:11:46.431Z,38.37
2023-05-15T20:14:15.942Z,38.47
2023-05-15T20:16:45.363Z,38.41
2023-05-15T20:19:16.758Z,38.30
2023-05-15T20:21:47.841Z,38.63
2023-05-15T20:24:18.195Z,39.01
2023-05-15T20:26:47.426Z,38.63
2023-05-15T20:29:16.824Z,38.14
2023-05-15T20:31:46.510Z,37.54
2023-05-15T20:34:16.967Z,37.11
2023-05-15T20:36:47.514Z,36.61
2023-05-15T20:39:17.237Z,35.90
2023-05-15T20:41:47.233Z,35.47
2023-05-15T20:44:16.933Z,35.31
2023-05-15T20:46:46.607Z,35.34
2023-05-15T20:49:16.079Z,35.15
2023-05-15T20:51:45.424Z,34.84
2023-05-15T20:54:17.533Z,34.32
2023-05-15T20:56:48.150Z,34.42
2023-05-15T20:59:18.168Z,34.38
2023-05-15T21:01:47.952Z,34.33
2023-05-15T21:04:17.724Z,34.22
2023-05-15T21:06:47.552Z,34.10
2023-05-15T21:09:17.090Z,34.15
2023-05-15T21:11:47.288Z,34.15
2023-05-15T21:14:17.145Z,34.30
2023-05-15T21:16:46.713Z,34.34
2023-05-15T21:19:16.299Z,34.47
2023-05-15T21:21:46.152Z,34.49
2023-05-15T21:24:16.848Z,34.60
2023-05-15T21:26:46.990Z,34.62
2023-05-15T21:29:16.437Z,34.68
2023-05-15T21:31:45.628Z,34.69
2023-05-15T21:34:17.234Z,34.73
2023-05-15T21:36:47.089Z,34.78
2023-05-15T21:39:16.403Z,34.88
2023-05-15T21:41:45.569Z,34.98
2023-05-15T21:44:14.865Z,34.94
2023-05-15T21:46:45.438Z,35.01
2023-05-15T21:49:15.273Z,35.07
2023-05-15T21:51:44.923Z,35.28
2023-05-15T21:54:14.468Z,35.31
2023-05-15T21:56:43.785Z,35.39
2023-05-15T21:59:14.640Z,35.44
2023-05-15T22:01:44.943Z,35.42
2023-05-15T22:04:14.707Z,35.38
2023-05-15T22:06:44.144Z,35.47
2023-05-15T22:09:13.965Z,35.69
2023-05-15T22:11:43.396Z,35.81
2023-05-15T22:17:01.632Z,36.44
2023-05-15T22:19:33.425Z,36.83
2023-05-15T22:22:04.279Z,36.88
2023-05-15T22:24:35.374Z,36.94
2023-05-15T22:27:05.377Z,36.95
2023-05-15T22:29:35.170Z,37.01
2023-05-15T22:32:06.489Z,37.20
2023-05-15T22:34:36.343Z,37.12
2023-05-15T22:37:05.811Z,37.29
2023-05-15T22:39:35.133Z,37.45
2023-05-15T22:42:04.835Z,37.56
2023-05-15T22:44:34.032Z,37.76
2023-05-15T22:47:03.536Z,37.90
2023-05-15T22:49:33.226Z,38.07
2023-05-15T22:52:02.171Z,38.10
2023-05-15T22:54:32.118Z,38.42
2023-05-15T22:57:02.546Z,38.51
2023-05-15T22:59:32.065Z,38.67
2023-05-15T23:02:02.477Z,38.73
2023-05-15T23:04:32.050Z,38.88
2023-05-15T23:07:01.802Z,39.06
2023-05-15T23:09:31.500Z,39.34
2023-05-15T23:12:01.559Z,39.63
2023-05-15T23:14:31.772Z,39.86
2023-05-15T23:17:00.977Z,39.88
2023-05-15T23:19:31.521Z,40.04
2023-05-15T23:22:01.304Z,40.23
2023-05-15T23:24:31.548Z,40.48
2023-05-15T23:27:01.203Z,40.68
2023-05-15T23:29:31.153Z,40.91
2023-05-15T23:32:00.448Z,41.22
2023-05-15T23:34:29.711Z,41.37
2023-05-15T23:36:58.904Z,41.44
2023-05-15T23:39:27.984Z,41.65
2023-05-15T23:41:57.468Z,41.79
2023-05-15T23:44:27.308Z,41.97
2023-05-15T23:46:57.480Z,41.64
2023-05-15T23:49:26.573Z,41.87
2023-05-15T23:51:56.045Z,41.73
2023-05-15T23:54:25.826Z,41.57
2023-05-15T23:56:56.239Z,41.24
2023-05-15T23:59:26.002Z,41.16
